createdAt,value
2018-04-17T00:01:58.565Z,11.17
2018-04-17T00:04:26.110Z,12.13
2018-04-17T00:06:53.636Z,5.57
2018-04-17T00:09:21.198Z,7.30
2018-04-17T00:11:48.738Z,8.83
2018-04-17T00:14:16.250Z,6.97
2018-04-17T00:16:43.775Z,7.13
2018-04-17T00:19:11.337Z,7.73
2018-04-17T00:21:38.831Z,9.33
2018-04-17T00:24:06.326Z,9.70
2018-04-17T00:26:33.861Z,12.00
2018-04-17T00:29:01.393Z,9.33
2018-04-17T00:31:29.673Z,7.57
2018-04-17T00:33:57.177Z,7.00
2018-04-17T00:36:25.586Z,9.53
2018-04-17T00:38:53.081Z,10.23
2018-04-17T00:41:20.595Z,8.43
2018-04-17T00:43:48.130Z,18.63
2018-04-17T00:46:15.646Z,8.40
2018-04-17T00:48:43.179Z,10.60
2018-04-17T00:51:10.684Z,6.40
2018-04-17T00:53:50.171Z,8.37
2018-04-17T00:56:17.683Z,9.43
2018-04-17T00:58:45.215Z,7.50
2018-04-17T01:01:13.489Z,6.97
2018-04-17T01:03:41.779Z,11.27
2018-04-17T01:06:09.275Z,7.77
2018-04-17T01:08:36.769Z,9.33
2018-04-17T01:11:05.074Z,7.63
2018-04-17T01:13:32.606Z,7.43
2018-04-17T01:16:00.129Z,9.23
2018-04-17T01:18:27.662Z,6.93
2018-04-17T01:20:55.193Z,10.33
2018-04-17T01:23:23.474Z,9.13
2018-04-17T01:25:51.011Z,9.60
2018-04-17T01:28:19.282Z,9.10
2018-04-17T01:30:46.813Z,13.03
2018-04-17T01:33:14.339Z,10.03
2018-04-17T01:35:41.877Z,9.67
2018-04-17T01:38:10.153Z,7.43
2018-04-17T01:40:38.410Z,13.63
2018-04-17T01:43:05.921Z,14.23
2018-04-17T01:45:33.440Z,10.40
2018-04-17T01:48:01.724Z,20.20
2018-04-17T01:50:29.990Z,7.23
2018-04-17T01:52:58.281Z,9.33
2018-04-17T01:55:26.575Z,7.73
2018-04-17T01:57:54.113Z,8.97
2018-04-17T02:00:22.371Z,9.40
2018-04-17T02:02:49.872Z,8.60
2018-04-17T02:05:17.436Z,8.70
2018-04-17T02:07:44.962Z,14.80
2018-04-17T02:10:22.957Z,8.80
2018-04-17T02:12:50.446Z,8.80
2018-04-17T02:15:17.950Z,14.30
2018-04-17T02:17:45.483Z,11.20
2018-04-17T02:20:13.000Z,10.20
2018-04-17T02:22:41.288Z,9.07
2018-04-17T02:25:09.569Z,13.10
2018-04-17T02:27:37.860Z,10.03
2018-04-17T02:30:05.382Z,8.43
2018-04-17T02:32:32.879Z,11.97
2018-04-17T02:35:00.406Z,13.13
2018-04-17T02:37:28.685Z,13.97
2018-04-17T02:39:56.941Z,9.00
2018-04-17T02:42:24.462Z,11.07
2018-04-17T02:44:51.982Z,13.70
2018-04-17T02:47:20.264Z,8.17
2018-04-17T02:49:47.771Z,12.77
2018-04-17T02:52:15.295Z,12.50
2018-04-17T02:54:42.815Z,7.50
2018-04-17T02:57:10.341Z,12.50
2018-04-17T02:59:37.869Z,10.43
2018-04-17T03:02:05.369Z,10.40
2018-04-17T03:04:32.880Z,10.60
2018-04-17T03:07:00.395Z,9.97
2018-04-17T03:09:27.878Z,8.87
2018-04-17T03:11:55.417Z,14.90
2018-04-17T03:14:22.915Z,20.63
2018-04-17T03:16:50.417Z,12.50
2018-04-17T03:19:17.938Z,10.90
2018-04-17T03:21:45.454Z,11.50
2018-04-17T03:24:12.993Z,10.20
2018-04-17T03:26:40.493Z,11.23
2018-04-17T03:29:08.002Z,12.07
2018-04-17T03:31:35.525Z,13.50
2018-04-17T03:34:03.056Z,12.00
2018-04-17T03:36:31.330Z,9.17
2018-04-17T03:38:59.725Z,11.20
2018-04-17T03:41:27.992Z,13.07
2018-04-17T03:43:55.503Z,13.17
2018-04-17T03:46:23.023Z,12.20
2018-04-17T03:48:50.518Z,9.70
2018-04-17T03:51:18.034Z,11.73
2018-04-17T03:53:45.549Z,14.20
2018-04-17T03:56:13.056Z,9.07
2018-04-17T03:58:40.563Z,8.90
2018-04-17T04:01:08.059Z,10.50
2018-04-17T04:03:35.564Z,10.60
2018-04-17T04:06:03.082Z,8.50
2018-04-17T04:08:30.611Z,9.73
2018-04-17T04:10:58.112Z,12.40
2018-04-17T04:13:25.647Z,12.07
2018-04-17T04:15:53.133Z,15.40
2018-04-17T04:18:32.443Z,14.97
2018-04-17T04:21:12.397Z,12.00
2018-04-17T04:23:51.769Z,14.50
2018-04-17T04:26:27.003Z,16.90
2018-04-17T04:28:54.511Z,19.13
2018-04-17T04:31:22.016Z,15.83
2018-04-17T04:33:49.536Z,11.43
2018-04-17T04:36:17.092Z,11.03
2018-04-17T04:38:44.653Z,16.13
2018-04-17T04:41:12.178Z,11.03
2018-04-17T04:43:39.733Z,11.57
2018-04-17T04:46:07.250Z,13.70
2018-04-17T04:48:34.790Z,11.57
2018-04-17T04:51:03.082Z,12.60
2018-04-17T04:53:31.347Z,7.97
2018-04-17T04:55:59.668Z,14.77
2018-04-17T04:58:27.194Z,12.80
2018-04-17T05:00:55.498Z,15.07
2018-04-17T05:03:23.000Z,12.60
2018-04-17T05:05:50.523Z,15.20
2018-04-17T05:08:18.029Z,11.97
2018-04-17T05:10:46.306Z,14.77
2018-04-17T05:13:14.598Z,11.83
2018-04-17T05:15:42.882Z,14.20
2018-04-17T05:18:11.176Z,11.50
2018-04-17T05:20:38.683Z,10.80
2018-04-17T05:23:06.240Z,12.17
2018-04-17T05:25:33.781Z,16.47
2018-04-17T05:28:01.267Z,12.97
2018-04-17T05:30:28.778Z,10.10
2018-04-17T05:32:56.301Z,12.63
2018-04-17T05:35:24.570Z,12.60
2018-04-17T05:37:52.853Z,10.20
2018-04-17T05:40:21.121Z,17.23
2018-04-17T05:42:49.411Z,17.80
2018-04-17T05:45:16.929Z,10.67
2018-04-17T05:47:44.443Z,9.77
2018-04-17T05:50:12.010Z,10.80
2018-04-17T05:52:39.486Z,11.90
2018-04-17T05:55:07.025Z,12.60
2018-04-17T05:57:34.594Z,9.57
2018-04-17T06:00:02.142Z,13.07
2018-04-17T06:02:29.640Z,15.73
2018-04-17T06:04:57.165Z,9.13
2018-04-17T06:07:24.663Z,7.93
2018-04-17T06:09:52.197Z,11.67
2018-04-17T06:12:19.730Z,11.83
2018-04-17T06:14:47.311Z,11.50
2018-04-17T06:17:14.851Z,12.30
2018-04-17T06:19:42.354Z,16.03
2018-04-17T06:22:09.909Z,9.00
2018-04-17T06:24:37.449Z,12.13
2018-04-17T06:27:04.951Z,14.83
2018-04-17T06:29:33.253Z,26.40
2018-04-17T06:32:00.761Z,16.20
2018-04-17T06:34:28.296Z,19.90
2018-04-17T06:36:55.802Z,13.83
2018-04-17T06:39:24.069Z,13.17
2018-04-17T06:41:51.614Z,11.70
2018-04-17T06:44:19.124Z,22.07
2018-04-17T06:46:46.660Z,16.53
2018-04-17T06:49:14.936Z,23.93
2018-04-17T06:51:43.237Z,20.00
2018-04-17T06:54:10.764Z,23.50
2018-04-17T06:56:38.284Z,20.70
2018-04-17T06:59:05.837Z,18.07
2018-04-17T07:01:33.376Z,15.90
2018-04-17T07:04:00.885Z,27.17
2018-04-17T07:06:28.440Z,21.10
2018-04-17T07:08:55.963Z,20.87
2018-04-17T07:11:23.529Z,19.20
2018-04-17T07:13:51.063Z,15.47
2018-04-17T07:16:18.585Z,15.70
2018-04-17T07:18:46.083Z,27.87
2018-04-17T07:21:13.677Z,27.60
2018-04-17T07:23:41.243Z,20.27
2018-04-17T07:26:08.761Z,17.77
2018-04-17T07:28:36.286Z,24.03
2018-04-17T07:31:04.594Z,22.03
2018-04-17T07:33:32.113Z,19.43
2018-04-17T07:35:59.658Z,29.00
2018-04-17T07:38:27.177Z,21.40
2018-04-17T07:40:54.738Z,25.00
2018-04-17T07:43:22.250Z,28.57
2018-04-17T07:45:49.801Z,26.77
2018-04-17T07:48:29.173Z,31.00
2018-04-17T07:50:57.466Z,30.90
2018-04-17T07:53:24.979Z,31.13
2018-04-17T07:55:52.529Z,33.23
2018-04-17T07:58:20.048Z,26.47
2018-04-17T08:00:47.582Z,22.83
2018-04-17T08:03:15.901Z,32.57
2018-04-17T08:05:43.412Z,27.20
2018-04-17T08:08:11.715Z,28.90
2018-04-17T08:10:39.252Z,23.43
2018-04-17T08:13:07.553Z,27.70
2018-04-17T08:15:35.073Z,25.53
2018-04-17T08:18:03.408Z,27.47
2018-04-17T08:20:30.938Z,26.43
2018-04-17T08:22:58.528Z,35.97
2018-04-17T08:25:26.103Z,20.40
2018-04-17T08:27:53.680Z,26.60
2018-04-17T08:30:21.179Z,24.33
2018-04-17T08:32:48.761Z,19.43
2018-04-17T08:35:16.293Z,23.43
2018-04-17T08:37:44.613Z,18.83
2018-04-17T08:40:12.133Z,23.60
2018-04-17T08:42:39.685Z,24.27
2018-04-17T08:45:07.224Z,21.20
2018-04-17T08:47:35.524Z,24.70
2018-04-17T08:50:03.820Z,26.73
2018-04-17T08:52:31.383Z,17.37
2018-04-17T08:54:58.900Z,24.37
2018-04-17T08:57:27.213Z,24.93
2018-04-17T08:59:54.802Z,25.77
2018-04-17T09:02:22.352Z,33.07
2018-04-17T09:04:49.893Z,20.30
2018-04-17T09:07:17.423Z,25.20
2018-04-17T09:09:45.737Z,23.27
2018-04-17T09:12:13.249Z,26.53
2018-04-17T09:14:40.790Z,20.53
2018-04-17T09:17:08.318Z,29.80
2018-04-17T09:19:35.860Z,20.97
2018-04-17T09:22:03.372Z,19.73
2018-04-17T09:24:30.905Z,17.23
2018-04-17T09:26:58.407Z,23.97
2018-04-17T09:29:25.954Z,25.83
2018-04-17T09:31:53.464Z,20.43
2018-04-17T09:34:20.999Z,26.73
2018-04-17T09:36:49.291Z,26.00
2018-04-17T09:39:16.829Z,17.23
2018-04-17T09:41:45.123Z,20.63
2018-04-17T09:44:12.628Z,17.40
2018-04-17T09:46:40.166Z,19.60
2018-04-17T09:49:07.694Z,23.93
2018-04-17T09:51:35.205Z,22.07
2018-04-17T09:54:02.761Z,20.60
2018-04-17T09:56:30.292Z,22.50
2018-04-17T09:58:57.845Z,20.53
2018-04-17T10:01:25.391Z,23.63
2018-04-17T10:03:52.927Z,17.17
2018-04-17T10:06:21.202Z,23.77
2018-04-17T10:08:49.509Z,25.73
2018-04-17T10:11:17.034Z,24.73
2018-04-17T10:13:45.329Z,24.23
2018-04-17T10:16:13.620Z,20.03
2018-04-17T10:18:41.154Z,18.37
2018-04-17T10:21:08.679Z,23.97
2018-04-17T10:23:36.193Z,19.80
2018-04-17T10:26:03.723Z,21.37
2018-04-17T10:28:32.024Z,20.77
2018-04-17T10:30:59.539Z,15.07
2018-04-17T10:33:27.043Z,17.53
2018-04-17T10:35:54.564Z,18.20
2018-04-17T10:38:22.848Z,16.23
2018-04-17T10:40:50.385Z,20.70
2018-04-17T10:43:17.933Z,14.60
2018-04-17T10:45:45.472Z,11.37
2018-04-17T10:48:12.984Z,12.63
2018-04-17T10:50:41.257Z,13.83
2018-04-17T10:53:08.808Z,14.20
2018-04-17T10:55:36.297Z,10.00
2018-04-17T10:58:04.590Z,8.27
2018-04-17T11:00:32.118Z,9.10
2018-04-17T11:03:00.405Z,14.00
2018-04-17T11:05:28.701Z,11.17
2018-04-17T11:07:56.226Z,13.53
2018-04-17T11:10:24.533Z,8.00
2018-04-17T11:12:52.057Z,6.10
2018-04-17T11:15:20.345Z,6.80
2018-04-17T11:17:48.621Z,5.93
2018-04-17T11:20:16.935Z,8.70
2018-04-17T11:22:44.431Z,9.47
2018-04-17T11:25:11.966Z,10.03
2018-04-17T11:27:39.469Z,9.37
2018-04-17T11:30:07.765Z,6.67
2018-04-17T11:32:35.280Z,6.43
2018-04-17T11:35:02.797Z,7.50
2018-04-17T11:37:30.345Z,7.37
2018-04-17T11:39:57.897Z,6.17
2018-04-17T11:42:26.168Z,4.80
2018-04-17T11:44:54.957Z,6.80
2018-04-17T11:47:22.504Z,6.47
2018-04-17T11:49:50.784Z,7.27
2018-04-17T11:52:19.091Z,7.50
2018-04-17T11:54:46.620Z,6.17
2018-04-17T11:57:14.904Z,9.97
2018-04-17T11:59:43.188Z,5.13
2018-04-17T12:02:10.718Z,5.10
2018-04-17T12:04:39.015Z,5.10
2018-04-17T12:07:07.302Z,4.10
2018-04-17T12:09:34.858Z,10.37
2018-04-17T12:12:02.379Z,4.47
2018-04-17T12:14:29.878Z,4.73
2018-04-17T12:16:57.405Z,7.87
2018-04-17T12:19:24.924Z,4.90
2018-04-17T12:21:53.218Z,3.57
2018-04-17T12:24:20.725Z,3.90
2018-04-17T12:26:49.004Z,5.80
2018-04-17T12:29:17.286Z,3.10
2018-04-17T12:31:44.832Z,2.30
2018-04-17T12:34:13.094Z,3.17
2018-04-17T12:36:41.449Z,5.07
2018-04-17T12:39:08.937Z,3.43
2018-04-17T12:41:37.198Z,4.83
2018-04-17T12:44:05.518Z,4.30
2018-04-17T12:46:33.030Z,5.47
2018-04-17T12:49:00.549Z,4.80
2018-04-17T12:51:28.043Z,3.87
2018-04-17T12:53:55.540Z,4.03
2018-04-17T12:56:23.104Z,5.13
2018-04-17T12:58:50.621Z,3.47
2018-04-17T13:01:18.145Z,12.27
2018-04-17T13:03:45.666Z,3.83
2018-04-17T13:06:13.950Z,3.53
2018-04-17T13:08:42.255Z,2.43
2018-04-17T13:11:09.816Z,3.17
2018-04-17T13:13:37.356Z,10.23
2018-04-17T13:16:04.845Z,2.93
2018-04-17T13:18:32.378Z,3.07
2018-04-17T13:20:59.894Z,4.03
2018-04-17T13:23:27.379Z,4.57
2018-04-17T13:25:54.953Z,2.80
2018-04-17T13:28:22.475Z,2.70
2018-04-17T13:30:50.009Z,2.60
2018-04-17T13:33:17.501Z,4.13
2018-04-17T13:35:45.779Z,4.90
2018-04-17T13:38:14.042Z,2.40
2018-04-17T13:40:41.565Z,4.40
2018-04-17T13:43:09.092Z,2.70
2018-04-17T13:45:36.622Z,6.93
2018-04-17T13:48:04.928Z,2.70
2018-04-17T13:50:32.459Z,3.23
2018-04-17T13:53:00.766Z,2.60
2018-04-17T13:55:28.265Z,2.40
2018-04-17T13:57:55.770Z,3.30
2018-04-17T14:00:23.309Z,6.90
2018-04-17T14:02:50.993Z,3.83
2018-04-17T14:05:18.605Z,2.43
2018-04-17T14:07:46.149Z,3.33
2018-04-17T14:10:13.664Z,2.60
2018-04-17T14:12:42.131Z,4.90
2018-04-17T14:15:10.413Z,5.77
2018-04-17T14:17:38.708Z,2.67
2018-04-17T14:20:06.255Z,3.30
2018-04-17T14:22:34.556Z,2.63
2018-04-17T14:25:02.091Z,4.33
2018-04-17T14:27:29.591Z,2.30
2018-04-17T14:29:57.116Z,2.57
2018-04-17T14:32:24.674Z,2.70
2018-04-17T14:34:52.190Z,2.63
2018-04-17T14:37:19.729Z,2.23
2018-04-17T14:39:47.228Z,3.30
2018-04-17T14:42:15.537Z,2.40
2018-04-17T14:44:43.064Z,2.60
2018-04-17T14:47:11.364Z,2.43
2018-04-17T14:49:38.902Z,2.97
2018-04-17T14:52:07.234Z,4.30
2018-04-17T14:54:34.762Z,2.30
2018-04-17T14:57:02.262Z,2.13
2018-04-17T14:59:29.794Z,2.70
2018-04-17T15:01:57.297Z,2.33
2018-04-17T15:04:24.857Z,3.13
2018-04-17T15:06:52.368Z,4.53
2018-04-17T15:09:19.925Z,2.77
2018-04-17T15:11:47.440Z,6.37
2018-04-17T15:14:14.962Z,23.40
2018-04-17T15:16:42.465Z,3.17
2018-04-17T15:19:10.757Z,2.60
2018-04-17T15:21:39.070Z,4.40
2018-04-17T15:24:06.586Z,6.23
2018-04-17T15:26:34.899Z,3.57
2018-04-17T15:29:02.454Z,3.40
2018-04-17T15:31:30.015Z,6.00
2018-04-17T15:33:57.549Z,5.73
2018-04-17T15:36:25.829Z,6.00
2018-04-17T15:38:54.108Z,4.13
2018-04-17T15:41:21.661Z,2.43
2018-04-17T15:43:49.976Z,2.10
2018-04-17T15:46:17.507Z,2.47
2018-04-17T15:48:45.032Z,2.90
2018-04-17T15:51:12.531Z,2.83
2018-04-17T15:53:40.051Z,3.07
2018-04-17T15:56:07.555Z,3.10
2018-04-17T15:58:35.121Z,5.30
2018-04-17T16:01:02.629Z,3.73
2018-04-17T16:03:30.206Z,3.97
2018-04-17T16:05:57.733Z,5.63
2018-04-17T16:08:25.272Z,14.00
2018-04-17T16:10:52.772Z,3.37
2018-04-17T16:13:21.081Z,2.83
2018-04-17T16:15:48.588Z,6.23
2018-04-17T16:18:16.110Z,3.77
2018-04-17T16:20:43.623Z,2.70
2018-04-17T16:23:11.889Z,3.00
2018-04-17T16:25:39.415Z,2.97
2018-04-17T16:28:06.923Z,2.93
2018-04-17T16:30:35.207Z,3.93
2018-04-17T16:33:03.543Z,3.03
2018-04-17T16:35:31.001Z,5.67
2018-04-17T16:37:58.579Z,6.37
2018-04-17T16:40:26.861Z,2.60
2018-04-17T16:42:55.169Z,4.10
2018-04-17T16:45:22.799Z,3.23
2018-04-17T16:47:51.409Z,2.90
2018-04-17T16:50:19.149Z,3.80
2018-04-17T16:52:46.704Z,2.73
2018-04-17T16:55:14.227Z,3.60
2018-04-17T16:57:41.963Z,3.13
2018-04-17T17:00:09.742Z,10.27
2018-04-17T17:02:37.240Z,3.10
2018-04-17T17:05:04.786Z,5.30
2018-04-17T17:07:32.471Z,3.83
2018-04-17T17:10:01.074Z,4.60
2018-04-17T17:12:28.633Z,3.60
2018-04-17T17:14:56.229Z,3.70
2018-04-17T17:17:23.736Z,4.53
2018-04-17T17:19:52.144Z,5.87
2018-04-17T17:22:19.774Z,8.40
2018-04-17T17:24:47.268Z,3.50
2018-04-17T17:27:14.790Z,3.33
2018-04-17T17:29:43.083Z,3.53
2018-04-17T17:32:11.390Z,3.33
2018-04-17T17:34:38.900Z,2.93
2018-04-17T17:37:06.397Z,10.97
2018-04-17T17:39:33.935Z,7.10
2018-04-17T17:42:02.268Z,5.03
2018-04-17T17:44:30.157Z,2.10
2018-04-17T17:46:57.859Z,3.10
2018-04-17T17:49:25.401Z,2.80
2018-04-17T17:51:53.695Z,5.07
2018-04-17T17:54:21.293Z,3.27
2018-04-17T17:56:49.094Z,3.33
2018-04-17T17:59:17.516Z,3.83
2018-04-17T18:01:45.082Z,5.07
2018-04-17T18:04:12.628Z,3.47
2018-04-17T18:06:40.304Z,3.67
2018-04-17T18:09:08.173Z,3.50
2018-04-17T18:11:35.692Z,6.70
2018-04-17T18:14:04.001Z,3.70
2018-04-17T18:16:31.516Z,3.40
2018-04-17T18:18:59.827Z,4.07
2018-04-17T18:21:27.357Z,3.23
2018-04-17T18:23:55.659Z,3.93
2018-04-17T18:26:23.185Z,4.13
2018-04-17T18:28:51.502Z,8.30
2018-04-17T18:31:18.987Z,3.80
2018-04-17T18:33:46.500Z,3.80
2018-04-17T18:36:14.034Z,6.37
2018-04-17T18:38:42.312Z,7.00
2018-04-17T18:41:10.605Z,8.33
2018-04-17T18:43:38.188Z,4.80
2018-04-17T18:46:05.688Z,6.83
2018-04-17T18:48:34.030Z,4.40
2018-04-17T18:51:01.554Z,4.40
2018-04-17T18:53:29.842Z,5.77
2018-04-17T18:55:57.389Z,6.43
2018-04-17T18:58:25.674Z,4.43
2018-04-17T19:00:53.221Z,5.50
2018-04-17T19:03:21.494Z,5.00
2018-04-17T19:05:49.790Z,7.30
2018-04-17T19:08:17.319Z,6.00
2018-04-17T19:10:44.855Z,6.33
2018-04-17T19:13:12.364Z,5.23
2018-04-17T19:15:39.930Z,9.37
2018-04-17T19:18:07.435Z,5.40
2018-04-17T19:20:34.982Z,5.93
2018-04-17T19:23:02.501Z,5.97
2018-04-17T19:25:30.075Z,5.13
2018-04-17T19:27:57.650Z,6.07
2018-04-17T19:30:25.892Z,11.13
2018-04-17T19:32:54.200Z,7.83
2018-04-17T19:35:21.742Z,6.90
2018-04-17T19:37:49.282Z,8.33
2018-04-17T19:40:17.593Z,5.60
2018-04-17T19:42:45.154Z,10.70
2018-04-17T19:45:12.686Z,10.07
2018-04-17T19:47:40.212Z,8.67
2018-04-17T19:50:07.755Z,10.60
2018-04-17T19:52:35.269Z,5.53
2018-04-17T19:55:02.801Z,5.63
2018-04-17T19:57:31.062Z,6.27
2018-04-17T19:59:58.578Z,14.13
2018-04-17T20:02:26.105Z,4.77
2018-04-17T20:04:54.414Z,6.20
2018-04-17T20:07:21.969Z,5.30
2018-04-17T20:09:49.485Z,5.73
2018-04-17T20:12:17.748Z,7.57
2018-04-17T20:14:45.299Z,5.50
2018-04-17T20:17:12.798Z,6.20
2018-04-17T20:19:41.105Z,6.50
2018-04-17T20:22:08.623Z,7.43
2018-04-17T20:24:36.901Z,6.13
2018-04-17T20:27:05.209Z,14.43
2018-04-17T20:29:32.737Z,6.23
2018-04-17T20:32:00.999Z,6.87
2018-04-17T20:34:29.285Z,9.40
2018-04-17T20:36:57.567Z,5.43
2018-04-17T20:39:25.837Z,5.47
2018-04-17T20:41:54.136Z,8.27
2018-04-17T20:44:21.652Z,7.47
2018-04-17T20:46:49.184Z,6.53
2018-04-17T20:49:16.713Z,8.50
2018-04-17T20:51:44.265Z,12.33
2018-04-17T20:54:12.585Z,9.00
2018-04-17T20:56:40.111Z,8.03
2018-04-17T20:59:07.645Z,8.47
2018-04-17T21:01:35.918Z,12.13
2018-04-17T21:04:04.270Z,6.80
2018-04-17T21:06:31.768Z,7.27
2018-04-17T21:08:59.314Z,9.70
2018-04-17T21:11:27.579Z,9.40
2018-04-17T21:13:55.099Z,8.57
2018-04-17T21:16:22.617Z,6.97
2018-04-17T21:18:50.894Z,12.30
2018-04-17T21:21:19.184Z,8.10
2018-04-17T21:23:46.673Z,6.47
2018-04-17T21:26:14.190Z,6.87
2018-04-17T21:28:42.492Z,7.63
2018-04-17T21:31:10.016Z,9.20
2018-04-17T21:33:38.327Z,21.40
2018-04-17T21:36:05.837Z,11.20
2018-04-17T21:38:33.335Z,16.20
2018-04-17T21:41:00.842Z,7.80
2018-04-17T21:43:28.366Z,9.53
2018-04-17T21:45:55.913Z,7.33
2018-04-17T21:48:23.429Z,11.10
2018-04-17T21:50:51.685Z,9.30
2018-04-17T21:53:19.222Z,11.03
2018-04-17T21:55:46.705Z,7.10
2018-04-17T21:58:14.236Z,8.40
2018-04-17T22:00:41.749Z,8.87
2018-04-17T22:03:10.018Z,8.00
2018-04-17T22:05:38.325Z,8.13
2018-04-17T22:08:05.867Z,12.93
2018-04-17T22:10:34.145Z,8.70
2018-04-17T22:13:02.414Z,10.50
2018-04-17T22:15:30.712Z,8.50
2018-04-17T22:17:58.208Z,10.97
2018-04-17T22:20:25.727Z,9.90
2018-04-17T22:22:53.314Z,8.27
2018-04-17T22:25:20.820Z,8.03
2018-04-17T22:27:48.357Z,9.73
2018-04-17T22:30:15.882Z,8.60
2018-04-17T22:32:43.409Z,12.53
2018-04-17T22:35:11.699Z,9.07
2018-04-17T22:37:39.205Z,9.77
2018-04-17T22:40:06.777Z,9.47
2018-04-17T22:42:34.300Z,11.63
2018-04-17T22:45:01.846Z,11.23
2018-04-17T22:47:29.348Z,13.17
2018-04-17T22:49:56.853Z,8.13
2018-04-17T22:52:24.373Z,10.73
2018-04-17T22:54:51.919Z,10.83
2018-04-17T22:57:19.464Z,9.87
2018-04-17T22:59:47.031Z,9.20
2018-04-17T23:02:14.556Z,11.93
2018-04-17T23:04:42.057Z,8.57
2018-04-17T23:07:09.602Z,10.53
2018-04-17T23:09:37.155Z,12.33
2018-04-17T23:12:04.645Z,10.80
2018-04-17T23:14:32.186Z,10.73
2018-04-17T23:16:59.693Z,9.20
2018-04-17T23:19:27.217Z,12.37
2018-04-17T23:21:54.750Z,9.67
2018-04-17T23:24:22.285Z,8.80
2018-04-17T23:26:49.810Z,13.47
2018-04-17T23:29:18.092Z,8.90
2018-04-17T23:31:45.634Z,13.20
2018-04-17T23:34:13.164Z,8.47
2018-04-17T23:36:40.660Z,7.97
2018-04-17T23:39:08.213Z,9.70
2018-04-17T23:41:35.732Z,10.13
2018-04-17T23:44:03.285Z,10.20
2018-04-17T23:46:31.575Z,11.13
2018-04-17T23:48:59.092Z,20.13
2018-04-17T23:51:26.602Z,9.77
2018-04-17T23:53:54.126Z,13.60
2018-04-17T23:56:21.629Z,14.23
2018-04-17T23:58:49.158Z,9.47
